sensor_id;sensor_type;location;lat;lon;timestamp;P1;durP1;ratioP1;P2;durP2;ratioP2
72053;SDS011;59918;51.280;7.950;2024-02-21T00:01:23;27.27;;;10.00;;
72053;SDS011;59918;51.280;7.950;2024-02-21T00:03:49;26.33;;;8.93;;
72053;SDS011;59918;51.280;7.950;2024-02-21T00:06:14;25.63;;;8.93;;
72053;SDS011;59918;51.280;7.950;2024-02-21T00:08:39;24.63;;;10.48;;
72053;SDS011;59918;51.280;7.950;2024-02-21T00:11:04;26.52;;;9.07;;
72053;SDS011;59918;51.280;7.950;2024-02-21T00:13:30;23.40;;;8.48;;
72053;SDS011;59918;51.280;7.950;2024-02-21T00:15:55;19.85;;;8.23;;
72053;SDS011;59918;51.280;7.950;2024-02-21T00:18:21;25.63;;;8.98;;
72053;SDS011;59918;51.280;7.950;2024-02-21T00:20:46;27.65;;;8.57;;
72053;SDS011;59918;51.280;7.950;2024-02-21T00:23:11;21.23;;;9.75;;
72053;SDS011;59918;51.280;7.950;2024-02-21T00:25:37;22.60;;;8.75;;
72053;SDS011;59918;51.280;7.950;2024-02-21T00:28:04;30.27;;;8.48;;
72053;SDS011;59918;51.280;7.950;2024-02-21T00:30:30;28.35;;;9.35;;
72053;SDS011;59918;51.280;7.950;2024-02-21T00:32:55;24.27;;;8.88;;
72053;SDS011;59918;51.280;7.950;2024-02-21T00:35:23;23.02;;;9.68;;
72053;SDS011;59918;51.280;7.950;2024-02-21T00:37:48;23.40;;;9.20;;
72053;SDS011;59918;51.280;7.950;2024-02-21T00:40:13;22.25;;;8.80;;
72053;SDS011;59918;51.280;7.950;2024-02-21T00:42:39;19.85;;;7.80;;
72053;SDS011;59918;51.280;7.950;2024-02-21T00:45:04;21.58;;;8.45;;
72053;SDS011;59918;51.280;7.950;2024-02-21T00:47:30;24.35;;;9.50;;
72053;SDS011;59918;51.280;7.950;2024-02-21T00:49:55;24.08;;;8.15;;
72053;SDS011;59918;51.280;7.950;2024-02-21T00:52:20;24.35;;;9.18;;
72053;SDS011;59918;51.280;7.950;2024-02-21T00:54:45;20.70;;;10.07;;
72053;SDS011;59918;51.280;7.950;2024-02-21T00:57:13;35.92;;;10.57;;
72053;SDS011;59918;51.280;7.950;2024-02-21T00:59:38;22.77;;;10.25;;
72053;SDS011;59918;51.280;7.950;2024-02-21T01:02:04;27.10;;;9.30;;
72053;SDS011;59918;51.280;7.950;2024-02-21T01:04:29;21.92;;;9.15;;
72053;SDS011;59918;51.280;7.950;2024-02-21T01:06:54;22.23;;;9.23;;
72053;SDS011;59918;51.280;7.950;2024-02-21T01:09:19;37.35;;;11.05;;
72053;SDS011;59918;51.280;7.950;2024-02-21T01:11:45;31.25;;;9.50;;
72053;SDS011;59918;51.280;7.950;2024-02-21T01:14:10;20.77;;;8.85;;
72053;SDS011;59918;51.280;7.950;2024-02-21T01:16:38;24.73;;;8.75;;
72053;SDS011;59918;51.280;7.950;2024-02-21T01:19:03;25.88;;;10.05;;
72053;SDS011;59918;51.280;7.950;2024-02-21T01:21:28;31.92;;;10.10;;
72053;SDS011;59918;51.280;7.950;2024-02-21T01:23:53;21.52;;;8.80;;
72053;SDS011;59918;51.280;7.950;2024-02-21T01:26:18;29.05;;;9.23;;
72053;SDS011;59918;51.280;7.950;2024-02-21T01:28:44;25.80;;;9.95;;
72053;SDS011;59918;51.280;7.950;2024-02-21T01:31:09;18.75;;;9.40;;
72053;SDS011;59918;51.280;7.950;2024-02-21T01:33:34;23.60;;;9.70;;
72053;SDS011;59918;51.280;7.950;2024-02-21T01:36:01;26.30;;;9.77;;
72053;SDS011;59918;51.280;7.950;2024-02-21T01:38:29;26.73;;;10.88;;
72053;SDS011;59918;51.280;7.950;2024-02-21T01:40:54;23.42;;;9.15;;
72053;SDS011;59918;51.280;7.950;2024-02-21T01:43:20;21.33;;;10.18;;
72053;SDS011;59918;51.280;7.950;2024-02-21T01:45:49;30.13;;;11.38;;
72053;SDS011;59918;51.280;7.950;2024-02-21T01:48:16;27.48;;;9.68;;
72053;SDS011;59918;51.280;7.950;2024-02-21T01:50:52;23.65;;;11.23;;
72053;SDS011;59918;51.280;7.950;2024-02-21T01:53:42;30.27;;;11.27;;
72053;SDS011;59918;51.280;7.950;2024-02-21T01:56:08;22.50;;;10.85;;
72053;SDS011;59918;51.280;7.950;2024-02-21T01:58:33;26.50;;;11.77;;
72053;SDS011;59918;51.280;7.950;2024-02-21T02:01:01;21.50;;;10.77;;
72053;SDS011;59918;51.280;7.950;2024-02-21T02:03:27;26.23;;;10.38;;
72053;SDS011;59918;51.280;7.950;2024-02-21T02:05:52;26.65;;;11.63;;
72053;SDS011;59918;51.280;7.950;2024-02-21T02:08:20;24.10;;;10.77;;
72053;SDS011;59918;51.280;7.950;2024-02-21T02:10:48;22.10;;;10.35;;
72053;SDS011;59918;51.280;7.950;2024-02-21T02:13:14;21.27;;;10.05;;
72053;SDS011;59918;51.280;7.950;2024-02-21T02:18:05;27.03;;;10.03;;
72053;SDS011;59918;51.280;7.950;2024-02-21T02:20:30;24.60;;;10.55;;
72053;SDS011;59918;51.280;7.950;2024-02-21T02:22:55;26.63;;;9.52;;
72053;SDS011;59918;51.280;7.950;2024-02-21T02:25:22;22.63;;;10.00;;
72053;SDS011;59918;51.280;7.950;2024-02-21T02:27:49;22.98;;;9.68;;
72053;SDS011;59918;51.280;7.950;2024-02-21T02:30:15;17.70;;;9.65;;
72053;SDS011;59918;51.280;7.950;2024-02-21T02:32:43;24.85;;;9.68;;
72053;SDS011;59918;51.280;7.950;2024-02-21T02:35:09;25.08;;;9.95;;
72053;SDS011;59918;51.280;7.950;2024-02-21T02:37:35;25.38;;;10.25;;
72053;SDS011;59918;51.280;7.950;2024-02-21T02:40:00;24.13;;;10.45;;
72053;SDS011;59918;51.280;7.950;2024-02-21T02:42:25;22.27;;;10.57;;
72053;SDS011;59918;51.280;7.950;2024-02-21T02:44:53;18.38;;;9.02;;
72053;SDS011;59918;51.280;7.950;2024-02-21T02:47:18;19.63;;;8.95;;
72053;SDS011;59918;51.280;7.950;2024-02-21T02:49:43;18.00;;;8.75;;
72053;SDS011;59918;51.280;7.950;2024-02-21T02:52:08;24.67;;;9.50;;
72053;SDS011;59918;51.280;7.950;2024-02-21T02:54:34;21.60;;;8.65;;
72053;SDS011;59918;51.280;7.950;2024-02-21T02:56:59;24.33;;;9.43;;
72053;SDS011;59918;51.280;7.950;2024-02-21T02:59:24;23.42;;;8.70;;
72053;SDS011;59918;51.280;7.950;2024-02-21T03:01:49;20.95;;;9.18;;
72053;SDS011;59918;51.280;7.950;2024-02-21T03:04:15;17.67;;;9.82;;
72053;SDS011;59918;51.280;7.950;2024-02-21T03:06:40;17.63;;;8.63;;
72053;SDS011;59918;51.280;7.950;2024-02-21T03:09:05;19.73;;;8.13;;
72053;SDS011;59918;51.280;7.950;2024-02-21T03:11:30;21.55;;;9.13;;
72053;SDS011;59918;51.280;7.950;2024-02-21T03:13:56;21.40;;;8.68;;
72053;SDS011;59918;51.280;7.950;2024-02-21T03:16:21;14.60;;;7.32;;
72053;SDS011;59918;51.280;7.950;2024-02-21T03:18:46;19.00;;;8.95;;
72053;SDS011;59918;51.280;7.950;2024-02-21T03:21:14;15.27;;;8.32;;
72053;SDS011;59918;51.280;7.950;2024-02-21T03:23:39;21.08;;;8.70;;
72053;SDS011;59918;51.280;7.950;2024-02-21T03:26:05;17.50;;;8.60;;
72053;SDS011;59918;51.280;7.950;2024-02-21T03:28:30;24.88;;;10.60;;
72053;SDS011;59918;51.280;7.950;2024-02-21T03:30:55;18.92;;;8.63;;
72053;SDS011;59918;51.280;7.950;2024-02-21T03:33:20;17.52;;;8.40;;
72053;SDS011;59918;51.280;7.950;2024-02-21T03:35:45;20.23;;;8.77;;
72053;SDS011;59918;51.280;7.950;2024-02-21T03:38:11;20.42;;;8.13;;
72053;SDS011;59918;51.280;7.950;2024-02-21T03:40:36;16.80;;;8.90;;
72053;SDS011;59918;51.280;7.950;2024-02-21T03:43:01;24.38;;;8.45;;
72053;SDS011;59918;51.280;7.950;2024-02-21T03:45:27;17.65;;;8.23;;
72053;SDS011;59918;51.280;7.950;2024-02-21T03:47:52;20.17;;;8.90;;
72053;SDS011;59918;51.280;7.950;2024-02-21T03:50:17;19.55;;;8.60;;
72053;SDS011;59918;51.280;7.950;2024-02-21T03:52:42;19.25;;;8.88;;
72053;SDS011;59918;51.280;7.950;2024-02-21T03:55:08;21.90;;;9.20;;
72053;SDS011;59918;51.280;7.950;2024-02-21T03:57:33;19.95;;;9.63;;
72053;SDS011;59918;51.280;7.950;2024-02-21T03:59:58;17.38;;;8.57;;
72053;SDS011;59918;51.280;7.950;2024-02-21T04:02:23;19.38;;;9.18;;
72053;SDS011;59918;51.280;7.950;2024-02-21T04:04:49;14.52;;;7.78;;
72053;SDS011;59918;51.280;7.950;2024-02-21T04:07:14;19.33;;;8.45;;
72053;SDS011;59918;51.280;7.950;2024-02-21T04:09:40;21.70;;;9.43;;
72053;SDS011;59918;51.280;7.950;2024-02-21T04:12:05;17.23;;;8.95;;
72053;SDS011;59918;51.280;7.950;2024-02-21T04:14:31;19.70;;;8.80;;
72053;SDS011;59918;51.280;7.950;2024-02-21T04:16:56;22.10;;;9.25;;
72053;SDS011;59918;51.280;7.950;2024-02-21T04:19:22;24.10;;;9.50;;
72053;SDS011;59918;51.280;7.950;2024-02-21T04:21:47;19.33;;;8.60;;
72053;SDS011;59918;51.280;7.950;2024-02-21T04:24:12;18.35;;;8.20;;
72053;SDS011;59918;51.280;7.950;2024-02-21T04:26:37;17.52;;;8.23;;
72053;SDS011;59918;51.280;7.950;2024-02-21T04:29:03;15.05;;;7.90;;
72053;SDS011;59918;51.280;7.950;2024-02-21T04:31:28;20.92;;;8.85;;
72053;SDS011;59918;51.280;7.950;2024-02-21T04:33:53;16.50;;;8.15;;
72053;SDS011;59918;51.280;7.950;2024-02-21T04:36:18;19.80;;;9.23;;
72053;SDS011;59918;51.280;7.950;2024-02-21T04:38:44;14.52;;;8.13;;
72053;SDS011;59918;51.280;7.950;2024-02-21T04:41:10;18.55;;;7.68;;
72053;SDS011;59918;51.280;7.950;2024-02-21T04:43:35;15.57;;;7.38;;
72053;SDS011;59918;51.280;7.950;2024-02-21T04:46:00;13.95;;;7.47;;
72053;SDS011;59918;51.280;7.950;2024-02-21T04:48:26;21.33;;;8.13;;
72053;SDS011;59918;51.280;7.950;2024-02-21T04:50:51;14.90;;;7.65;;
72053;SDS011;59918;51.280;7.950;2024-02-21T04:53:16;20.95;;;7.90;;
72053;SDS011;59918;51.280;7.950;2024-02-21T04:55:41;21.42;;;7.88;;
72053;SDS011;59918;51.280;7.950;2024-02-21T04:58:07;16.75;;;7.25;;
72053;SDS011;59918;51.280;7.950;2024-02-21T05:00:32;17.58;;;8.32;;
72053;SDS011;59918;51.280;7.950;2024-02-21T05:02:58;18.83;;;8.45;;
72053;SDS011;59918;51.280;7.950;2024-02-21T05:05:23;13.05;;;7.40;;
72053;SDS011;59918;51.280;7.950;2024-02-21T05:07:48;19.77;;;8.10;;
72053;SDS011;59918;51.280;7.950;2024-02-21T05:10:13;12.13;;;7.57;;
72053;SDS011;59918;51.280;7.950;2024-02-21T05:12:39;16.23;;;7.22;;
72053;SDS011;59918;51.280;7.950;2024-02-21T05:15:04;15.25;;;7.13;;
72053;SDS011;59918;51.280;7.950;2024-02-21T05:17:30;21.60;;;7.78;;
72053;SDS011;59918;51.280;7.950;2024-02-21T05:19:55;16.40;;;7.80;;
72053;SDS011;59918;51.280;7.950;2024-02-21T05:22:20;14.85;;;7.93;;
72053;SDS011;59918;51.280;7.950;2024-02-21T05:24:46;11.60;;;7.45;;
72053;SDS011;59918;51.280;7.950;2024-02-21T05:27:11;13.13;;;7.45;;
72053;SDS011;59918;51.280;7.950;2024-02-21T05:29:39;18.13;;;6.97;;
72053;SDS011;59918;51.280;7.950;2024-02-21T05:32:04;15.73;;;7.47;;
72053;SDS011;59918;51.280;7.950;2024-02-21T05:34:30;14.55;;;7.28;;
72053;SDS011;59918;51.280;7.950;2024-02-21T05:36:55;16.25;;;7.35;;
72053;SDS011;59918;51.280;7.950;2024-02-21T05:39:20;16.95;;;7.20;;
72053;SDS011;59918;51.280;7.950;2024-02-21T05:41:45;14.65;;;6.80;;
72053;SDS011;59918;51.280;7.950;2024-02-21T05:44:11;18.10;;;6.88;;
72053;SDS011;59918;51.280;7.950;2024-02-21T05:46:36;14.13;;;6.80;;
72053;SDS011;59918;51.280;7.950;2024-02-21T05:49:02;14.85;;;7.32;;
72053;SDS011;59918;51.280;7.950;2024-02-21T05:51:27;14.43;;;7.10;;
72053;SDS011;59918;51.280;7.950;2024-02-21T05:53:52;13.73;;;6.32;;
72053;SDS011;59918;51.280;7.950;2024-02-21T05:56:17;15.18;;;7.05;;
72053;SDS011;59918;51.280;7.950;2024-02-21T05:58:43;15.25;;;6.75;;
72053;SDS011;59918;51.280;7.950;2024-02-21T06:01:08;17.30;;;9.23;;
72053;SDS011;59918;51.280;7.950;2024-02-21T06:03:33;15.05;;;6.65;;
72053;SDS011;59918;51.280;7.950;2024-02-21T06:06:00;13.95;;;6.85;;
72053;SDS011;59918;51.280;7.950;2024-02-21T06:08:25;18.92;;;6.93;;
72053;SDS011;59918;51.280;7.950;2024-02-21T06:10:51;16.80;;;7.15;;
72053;SDS011;59918;51.280;7.950;2024-02-21T06:13:16;11.02;;;6.13;;
72053;SDS011;59918;51.280;7.950;2024-02-21T06:15:41;15.23;;;9.00;;
72053;SDS011;59918;51.280;7.950;2024-02-21T06:18:07;19.35;;;6.88;;
72053;SDS011;59918;51.280;7.950;2024-02-21T06:20:32;12.50;;;7.20;;
72053;SDS011;59918;51.280;7.950;2024-02-21T06:22:57;17.02;;;7.45;;
72053;SDS011;59918;51.280;7.950;2024-02-21T06:25:22;16.15;;;7.20;;
72053;SDS011;59918;51.280;7.950;2024-02-21T06:27:48;18.67;;;7.93;;
72053;SDS011;59918;51.280;7.950;2024-02-21T06:30:13;15.35;;;7.47;;
72053;SDS011;59918;51.280;7.950;2024-02-21T06:32:38;18.33;;;7.53;;
72053;SDS011;59918;51.280;7.950;2024-02-21T06:35:04;16.13;;;6.72;;
72053;SDS011;59918;51.280;7.950;2024-02-21T06:37:35;14.48;;;7.60;;
72053;SDS011;59918;51.280;7.950;2024-02-21T06:40:00;15.85;;;7.80;;
72053;SDS011;59918;51.280;7.950;2024-02-21T06:42:25;24.58;;;10.13;;
72053;SDS011;59918;51.280;7.950;2024-02-21T06:44:51;24.23;;;8.60;;
72053;SDS011;59918;51.280;7.950;2024-02-21T06:47:16;22.17;;;7.65;;
72053;SDS011;59918;51.280;7.950;2024-02-21T06:49:42;13.70;;;7.78;;
72053;SDS011;59918;51.280;7.950;2024-02-21T06:52:07;16.75;;;8.18;;
72053;SDS011;59918;51.280;7.950;2024-02-21T06:54:32;12.73;;;7.13;;
72053;SDS011;59918;51.280;7.950;2024-02-21T06:56:57;15.93;;;7.32;;
72053;SDS011;59918;51.280;7.950;2024-02-21T06:59:23;12.77;;;6.55;;
72053;SDS011;59918;51.280;7.950;2024-02-21T07:01:48;17.80;;;7.40;;
72053;SDS011;59918;51.280;7.950;2024-02-21T07:04:14;17.67;;;7.00;;
72053;SDS011;59918;51.280;7.950;2024-02-21T07:06:40;14.02;;;7.47;;
72053;SDS011;59918;51.280;7.950;2024-02-21T07:09:05;18.10;;;6.75;;
72053;SDS011;59918;51.280;7.950;2024-02-21T07:11:30;26.20;;;10.82;;
72053;SDS011;59918;51.280;7.950;2024-02-21T07:13:55;16.50;;;6.88;;
72053;SDS011;59918;51.280;7.950;2024-02-21T07:16:21;15.63;;;7.10;;
72053;SDS011;59918;51.280;7.950;2024-02-21T07:18:46;12.55;;;7.20;;
72053;SDS011;59918;51.280;7.950;2024-02-21T07:21:11;12.57;;;7.18;;
72053;SDS011;59918;51.280;7.950;2024-02-21T07:23:36;16.50;;;6.95;;
72053;SDS011;59918;51.280;7.950;2024-02-21T07:26:05;13.25;;;6.78;;
72053;SDS011;59918;51.280;7.950;2024-02-21T07:28:30;15.80;;;7.28;;
72053;SDS011;59918;51.280;7.950;2024-02-21T07:30:55;19.73;;;6.97;;
72053;SDS011;59918;51.280;7.950;2024-02-21T07:33:20;15.38;;;7.30;;
72053;SDS011;59918;51.280;7.950;2024-02-21T07:35:46;17.25;;;6.55;;
72053;SDS011;59918;51.280;7.950;2024-02-21T07:38:11;14.18;;;6.63;;
72053;SDS011;59918;51.280;7.950;2024-02-21T07:40:36;14.85;;;6.55;;
72053;SDS011;59918;51.280;7.950;2024-02-21T07:43:01;17.90;;;6.90;;
72053;SDS011;59918;51.280;7.950;2024-02-21T07:45:27;15.10;;;6.38;;
72053;SDS011;59918;51.280;7.950;2024-02-21T07:47:52;17.75;;;7.95;;
72053;SDS011;59918;51.280;7.950;2024-02-21T07:50:17;16.63;;;6.55;;
72053;SDS011;59918;51.280;7.950;2024-02-21T07:52:43;13.70;;;6.28;;
72053;SDS011;59918;51.280;7.950;2024-02-21T07:55:08;14.88;;;5.65;;
72053;SDS011;59918;51.280;7.950;2024-02-21T07:57:33;16.55;;;6.32;;
72053;SDS011;59918;51.280;7.950;2024-02-21T07:59:58;12.80;;;6.05;;
72053;SDS011;59918;51.280;7.950;2024-02-21T08:02:24;12.85;;;5.15;;
72053;SDS011;59918;51.280;7.950;2024-02-21T08:04:49;10.10;;;5.30;;
72053;SDS011;59918;51.280;7.950;2024-02-21T08:07:14;10.68;;;5.50;;
72053;SDS011;59918;51.280;7.950;2024-02-21T08:09:40;12.40;;;5.20;;
72053;SDS011;59918;51.280;7.950;2024-02-21T08:12:05;10.45;;;4.90;;
72053;SDS011;59918;51.280;7.950;2024-02-21T08:14:31;10.13;;;4.65;;
72053;SDS011;59918;51.280;7.950;2024-02-21T08:16:56;9.82;;;5.20;;
72053;SDS011;59918;51.280;7.950;2024-02-21T08:19:21;12.93;;;5.00;;
72053;SDS011;59918;51.280;7.950;2024-02-21T08:21:47;11.68;;;4.90;;
72053;SDS011;59918;51.280;7.950;2024-02-21T08:24:12;10.88;;;4.47;;
72053;SDS011;59918;51.280;7.950;2024-02-21T08:26:41;11.20;;;4.35;;
72053;SDS011;59918;51.280;7.950;2024-02-21T08:29:07;11.43;;;4.10;;
72053;SDS011;59918;51.280;7.950;2024-02-21T08:31:37;14.30;;;4.32;;
72053;SDS011;59918;51.280;7.950;2024-02-21T08:34:02;13.00;;;4.63;;
72053;SDS011;59918;51.280;7.950;2024-02-21T08:36:28;6.45;;;4.05;;
72053;SDS011;59918;51.280;7.950;2024-02-21T08:38:54;8.88;;;3.67;;
72053;SDS011;59918;51.280;7.950;2024-02-21T08:41:19;6.85;;;4.20;;
72053;SDS011;59918;51.280;7.950;2024-02-21T08:43:45;8.60;;;3.83;;
72053;SDS011;59918;51.280;7.950;2024-02-21T08:46:10;10.90;;;4.43;;
72053;SDS011;59918;51.280;7.950;2024-02-21T08:48:35;10.32;;;4.10;;
72053;SDS011;59918;51.280;7.950;2024-02-21T08:51:00;9.32;;;4.25;;
72053;SDS011;59918;51.280;7.950;2024-02-21T08:53:26;15.90;;;4.20;;
72053;SDS011;59918;51.280;7.950;2024-02-21T08:55:51;7.43;;;3.63;;
72053;SDS011;59918;51.280;7.950;2024-02-21T08:58:16;9.93;;;4.32;;
72053;SDS011;59918;51.280;7.950;2024-02-21T09:00:41;9.35;;;3.55;;
72053;SDS011;59918;51.280;7.950;2024-02-21T09:03:07;12.25;;;4.10;;
72053;SDS011;59918;51.280;7.950;2024-02-21T09:05:32;12.40;;;3.88;;
72053;SDS011;59918;51.280;7.950;2024-02-21T09:07:57;8.85;;;4.13;;
72053;SDS011;59918;51.280;7.950;2024-02-21T09:10:22;11.80;;;3.58;;
72053;SDS011;59918;51.280;7.950;2024-02-21T09:12:48;8.68;;;3.67;;
72053;SDS011;59918;51.280;7.950;2024-02-21T09:15:13;10.43;;;4.10;;
72053;SDS011;59918;51.280;7.950;2024-02-21T09:17:38;12.73;;;4.03;;
72053;SDS011;59918;51.280;7.950;2024-02-21T09:20:04;6.10;;;3.38;;
72053;SDS011;59918;51.280;7.950;2024-02-21T09:22:30;8.57;;;3.63;;
72053;SDS011;59918;51.280;7.950;2024-02-21T09:24:55;8.48;;;3.38;;
72053;SDS011;59918;51.280;7.950;2024-02-21T09:27:20;7.85;;;3.10;;
72053;SDS011;59918;51.280;7.950;2024-02-21T09:29:45;9.18;;;3.45;;
72053;SDS011;59918;51.280;7.950;2024-02-21T09:32:11;11.02;;;3.40;;
72053;SDS011;59918;51.280;7.950;2024-02-21T09:34:36;8.73;;;3.42;;
72053;SDS011;59918;51.280;7.950;2024-02-21T09:37:01;9.90;;;3.60;;
72053;SDS011;59918;51.280;7.950;2024-02-21T09:39:26;12.30;;;3.40;;
72053;SDS011;59918;51.280;7.950;2024-02-21T09:41:58;7.82;;;3.08;;
72053;SDS011;59918;51.280;7.950;2024-02-21T09:44:27;7.07;;;3.45;;
72053;SDS011;59918;51.280;7.950;2024-02-21T09:47:26;11.88;;;4.43;;
72053;SDS011;59918;51.280;7.950;2024-02-21T09:49:59;7.15;;;3.35;;
72053;SDS011;59918;51.280;7.950;2024-02-21T09:52:28;5.63;;;3.22;;
72053;SDS011;59918;51.280;7.950;2024-02-21T09:54:54;7.78;;;3.63;;
72053;SDS011;59918;51.280;7.950;2024-02-21T09:57:19;11.27;;;3.80;;
72053;SDS011;59918;51.280;7.950;2024-02-21T09:59:45;9.30;;;3.85;;
72053;SDS011;59918;51.280;7.950;2024-02-21T10:02:10;9.73;;;4.55;;
72053;SDS011;59918;51.280;7.950;2024-02-21T10:04:35;8.20;;;3.97;;
72053;SDS011;59918;51.280;7.950;2024-02-21T10:07:00;7.50;;;4.00;;
72053;SDS011;59918;51.280;7.950;2024-02-21T10:09:26;11.93;;;4.57;;
72053;SDS011;59918;51.280;7.950;2024-02-21T10:11:53;9.23;;;4.07;;
72053;SDS011;59918;51.280;7.950;2024-02-21T10:14:18;9.35;;;3.90;;
72053;SDS011;59918;51.280;7.950;2024-02-21T10:16:45;11.13;;;4.68;;
72053;SDS011;59918;51.280;7.950;2024-02-21T10:19:19;9.25;;;4.35;;
72053;SDS011;59918;51.280;7.950;2024-02-21T10:24:28;11.13;;;4.40;;
72053;SDS011;59918;51.280;7.950;2024-02-21T10:27:01;14.93;;;4.90;;
72053;SDS011;59918;51.280;7.950;2024-02-21T10:29:30;14.82;;;4.53;;
72053;SDS011;59918;51.280;7.950;2024-02-21T10:32:12;18.45;;;5.78;;
72053;SDS011;59918;51.280;7.950;2024-02-21T10:34:38;15.43;;;4.88;;
72053;SDS011;59918;51.280;7.950;2024-02-21T10:37:06;12.30;;;5.47;;
72053;SDS011;59918;51.280;7.950;2024-02-21T10:39:32;7.28;;;4.43;;
72053;SDS011;59918;51.280;7.950;2024-02-21T10:42:02;12.20;;;4.70;;
72053;SDS011;59918;51.280;7.950;2024-02-21T10:44:28;13.18;;;5.53;;
72053;SDS011;59918;51.280;7.950;2024-02-21T10:46:53;14.63;;;4.82;;
72053;SDS011;59918;51.280;7.950;2024-02-21T10:49:22;11.05;;;4.80;;
72053;SDS011;59918;51.280;7.950;2024-02-21T10:51:48;12.98;;;4.88;;
72053;SDS011;59918;51.280;7.950;2024-02-21T10:56:48;20.00;;;5.07;;
72053;SDS011;59918;51.280;7.950;2024-02-21T10:59:14;12.23;;;4.78;;
72053;SDS011;59918;51.280;7.950;2024-02-21T11:01:41;11.70;;;4.55;;
72053;SDS011;59918;51.280;7.950;2024-02-21T11:04:07;11.95;;;4.38;;
72053;SDS011;59918;51.280;7.950;2024-02-21T11:06:34;10.70;;;4.55;;
72053;SDS011;59918;51.280;7.950;2024-02-21T11:09:01;17.40;;;4.63;;
72053;SDS011;59918;51.280;7.950;2024-02-21T11:11:40;8.60;;;4.32;;
72053;SDS011;59918;51.280;7.950;2024-02-21T11:16:45;16.20;;;4.55;;
72053;SDS011;59918;51.280;7.950;2024-02-21T11:19:27;9.93;;;4.20;;
72053;SDS011;59918;51.280;7.950;2024-02-21T11:24:27;12.63;;;4.20;;
72053;SDS011;59918;51.280;7.950;2024-02-21T11:26:53;11.20;;;4.32;;
72053;SDS011;59918;51.280;7.950;2024-02-21T11:29:25;9.35;;;3.78;;
72053;SDS011;59918;51.280;7.950;2024-02-21T11:31:51;7.68;;;4.45;;
72053;SDS011;59918;51.280;7.950;2024-02-21T11:34:19;8.00;;;4.18;;
72053;SDS011;59918;51.280;7.950;2024-02-21T11:36:48;12.25;;;4.10;;
72053;SDS011;59918;51.280;7.950;2024-02-21T11:39:24;13.88;;;4.13;;
72053;SDS011;59918;51.280;7.950;2024-02-21T11:44:45;9.43;;;4.50;;
72053;SDS011;59918;51.280;7.950;2024-02-21T11:47:11;12.15;;;4.38;;
72053;SDS011;59918;51.280;7.950;2024-02-21T11:49:37;8.27;;;3.63;;
72053;SDS011;59918;51.280;7.950;2024-02-21T11:52:04;9.65;;;3.47;;
72053;SDS011;59918;51.280;7.950;2024-02-21T11:54:30;7.13;;;3.33;;
72053;SDS011;59918;51.280;7.950;2024-02-21T11:56:55;10.85;;;3.33;;
72053;SDS011;59918;51.280;7.950;2024-02-21T11:59:21;9.55;;;3.40;;
72053;SDS011;59918;51.280;7.950;2024-02-21T12:01:47;14.88;;;4.32;;
72053;SDS011;59918;51.280;7.950;2024-02-21T12:04:13;10.25;;;4.15;;
72053;SDS011;59918;51.280;7.950;2024-02-21T12:06:39;9.52;;;3.42;;
72053;SDS011;59918;51.280;7.950;2024-02-21T12:09:04;9.45;;;3.38;;
72053;SDS011;59918;51.280;7.950;2024-02-21T12:11:29;9.50;;;3.70;;
72053;SDS011;59918;51.280;7.950;2024-02-21T12:14:01;10.48;;;3.75;;
72053;SDS011;59918;51.280;7.950;2024-02-21T12:16:27;5.90;;;3.20;;
72053;SDS011;59918;51.280;7.950;2024-02-21T12:18:53;9.98;;;3.85;;
72053;SDS011;59918;51.280;7.950;2024-02-21T12:21:18;13.60;;;3.97;;
72053;SDS011;59918;51.280;7.950;2024-02-21T12:23:44;10.90;;;3.53;;
72053;SDS011;59918;51.280;7.950;2024-02-21T12:26:09;11.05;;;4.22;;
72053;SDS011;59918;51.280;7.950;2024-02-21T12:28:34;13.27;;;3.38;;
72053;SDS011;59918;51.280;7.950;2024-02-21T12:30:59;10.75;;;3.72;;
72053;SDS011;59918;51.280;7.950;2024-02-21T12:33:25;8.63;;;3.65;;
72053;SDS011;59918;51.280;7.950;2024-02-21T12:35:50;9.63;;;3.72;;
72053;SDS011;59918;51.280;7.950;2024-02-21T12:38:15;9.75;;;3.83;;
72053;SDS011;59918;51.280;7.950;2024-02-21T12:40:41;8.05;;;4.00;;
72053;SDS011;59918;51.280;7.950;2024-02-21T12:43:06;12.07;;;3.60;;
72053;SDS011;59918;51.280;7.950;2024-02-21T12:45:31;10.32;;;3.72;;
72053;SDS011;59918;51.280;7.950;2024-02-21T12:47:56;11.00;;;4.32;;
72053;SDS011;59918;51.280;7.950;2024-02-21T12:50:22;8.75;;;4.40;;
72053;SDS011;59918;51.280;7.950;2024-02-21T12:52:47;8.52;;;4.00;;
72053;SDS011;59918;51.280;7.950;2024-02-21T12:55:12;7.78;;;4.13;;
72053;SDS011;59918;51.280;7.950;2024-02-21T12:57:37;10.80;;;4.40;;
72053;SDS011;59918;51.280;7.950;2024-02-21T13:00:03;5.68;;;3.53;;
72053;SDS011;59918;51.280;7.950;2024-02-21T13:02:28;9.18;;;3.92;;
72053;SDS011;59918;51.280;7.950;2024-02-21T13:04:54;8.73;;;3.65;;
72053;SDS011;59918;51.280;7.950;2024-02-21T13:07:19;8.93;;;4.45;;
72053;SDS011;59918;51.280;7.950;2024-02-21T13:09:44;9.80;;;4.75;;
72053;SDS011;59918;51.280;7.950;2024-02-21T13:12:09;13.93;;;5.60;;
72053;SDS011;59918;51.280;7.950;2024-02-21T13:14:35;6.65;;;4.25;;
72053;SDS011;59918;51.280;7.950;2024-02-21T13:17:00;9.95;;;3.72;;
72053;SDS011;59918;51.280;7.950;2024-02-21T13:19:25;11.40;;;3.92;;
72053;SDS011;59918;51.280;7.950;2024-02-21T13:21:50;9.77;;;4.28;;
72053;SDS011;59918;51.280;7.950;2024-02-21T13:24:16;9.10;;;3.78;;
72053;SDS011;59918;51.280;7.950;2024-02-21T13:26:41;9.20;;;4.03;;
72053;SDS011;59918;51.280;7.950;2024-02-21T13:29:06;7.90;;;3.63;;
72053;SDS011;59918;51.280;7.950;2024-02-21T13:31:31;8.32;;;3.85;;
72053;SDS011;59918;51.280;7.950;2024-02-21T13:33:57;8.23;;;3.40;;
72053;SDS011;59918;51.280;7.950;2024-02-21T13:36:22;7.05;;;3.20;;
72053;SDS011;59918;51.280;7.950;2024-02-21T13:38:49;14.35;;;3.38;;
72053;SDS011;59918;51.280;7.950;2024-02-21T13:41:14;12.07;;;3.85;;
72053;SDS011;59918;51.280;7.950;2024-02-21T13:43:40;10.35;;;3.78;;
72053;SDS011;59918;51.280;7.950;2024-02-21T13:46:05;7.57;;;3.92;;
72053;SDS011;59918;51.280;7.950;2024-02-21T13:48:30;5.85;;;3.28;;
72053;SDS011;59918;51.280;7.950;2024-02-21T13:50:56;8.20;;;3.63;;
72053;SDS011;59918;51.280;7.950;2024-02-21T13:53:21;7.65;;;3.55;;
72053;SDS011;59918;51.280;7.950;2024-02-21T13:55:46;9.30;;;3.78;;
72053;SDS011;59918;51.280;7.950;2024-02-21T13:58:12;7.22;;;2.95;;
72053;SDS011;59918;51.280;7.950;2024-02-21T14:00:37;11.15;;;3.72;;
72053;SDS011;59918;51.280;7.950;2024-02-21T14:03:03;9.15;;;3.25;;
72053;SDS011;59918;51.280;7.950;2024-02-21T14:05:28;4.45;;;2.55;;
72053;SDS011;59918;51.280;7.950;2024-02-21T14:07:53;11.30;;;3.20;;
72053;SDS011;59918;51.280;7.950;2024-02-21T14:10:18;7.38;;;3.15;;
72053;SDS011;59918;51.280;7.950;2024-02-21T14:12:44;8.00;;;3.10;;
72053;SDS011;59918;51.280;7.950;2024-02-21T14:15:09;7.25;;;3.45;;
72053;SDS011;59918;51.280;7.950;2024-02-21T14:17:34;9.82;;;3.08;;
72053;SDS011;59918;51.280;7.950;2024-02-21T14:20:00;10.63;;;2.75;;
72053;SDS011;59918;51.280;7.950;2024-02-21T14:22:25;9.48;;;3.13;;
72053;SDS011;59918;51.280;7.950;2024-02-21T14:24:50;5.90;;;2.88;;
72053;SDS011;59918;51.280;7.950;2024-02-21T14:27:18;6.07;;;2.40;;
72053;SDS011;59918;51.280;7.950;2024-02-21T14:29:43;6.82;;;2.22;;
72053;SDS011;59918;51.280;7.950;2024-02-21T14:32:09;5.93;;;2.13;;
72053;SDS011;59918;51.280;7.950;2024-02-21T14:34:37;6.28;;;2.38;;
72053;SDS011;59918;51.280;7.950;2024-02-21T14:37:03;5.65;;;2.35;;
72053;SDS011;59918;51.280;7.950;2024-02-21T14:39:28;8.93;;;2.63;;
72053;SDS011;59918;51.280;7.950;2024-02-21T14:41:54;9.10;;;2.60;;
72053;SDS011;59918;51.280;7.950;2024-02-21T14:44:19;6.82;;;2.17;;